ميلانو, إيطاليا

01:25 PM CEST on أعس×س 23, 2014 (GMT +0200)
ILOMBARD91 | Change Station
CLOSE
Current Station
Personal Weather Stations
Location: SOMMA LOMBARDO, LOMBARDIA
Elevation: 935 ft
Nearby Weather Stations

Elev 935 ft 45.69 °N, 8.69 °E | Updated 14 seconds ago

Scattered Clouds
غيوم متفرقة
67.7 °F
Feels Like 67.7 °F
N
2.0
ريح متغير ريح from جنوب
Gusts 2.0 mph

هذا اليوم
High -- | Low -- °F
--% Chance of Precip.
Yesterday
High -- | Low -- °F
Precip. -- في
6:34 AM 8:19 PM
الهلال الأخير, 4% visible
الضغط 29.92 في
وضوح الرؤية 6.2 أميال
سحابات غيوم متفرقة 2700 ft
نقطة الندى 62 °F
الرطوبة 82%
Rainfall 0.35 في
عمق الثلج Not available.
الأشعة فوق البنفسجية 7 out of 12
Pollen Not available.
جودة الهواء Not available.
Flu Activity Not available.
METAR LSZA 231120Z VRB03KT 9999 SCT027 22/15 Q1013 NOSIG

More Conditions Fewer Conditions

الضغط 29.92 في
وضوح الرؤية 6.2 أميال
سحابات غيوم متفرقة 2700 ft
نقطة الندى 62 °F
الرطوبة 82%
Rainfall 0.35 في
عمق الثلج Not available.
الأشعة فوق البنفسجية 7 out of 12
Pollen Not available.
جودة الهواء Not available.
Flu Activity Not available.
METAR LSZA 231120Z VRB03KT 9999 SCT027 22/15 Q1013 NOSIG

More Conditions Fewer Conditions

10-Day Weather Forecast

Almanac

علم الفلك

Aug. 23, 2014 Rise Set
Actual Time 6:34 AM CEST 8:19 PM CEST
Civil Twilight 6:03 AM CEST 8:51 PM CEST
Nautical Twilight 5:24 AM CEST 9:29 PM CEST
Astronomical Twilight 4:43 AM CEST 10:10 PM CEST
قمر 4:33 AM CEST 6:55 PM CEST
Length Of Visible Light 14h 47m
طول الیوم
13h 44m
Tomorrow will be 3m 0s shorter.
الهلال الأخير, 4% of the Moon is Illuminated
هذا اليوم
الهلال الأخير
Aug 25
New
Sep 2
الربع الاول
Sep 8
بدر
Sep 15
الربع الآخر

Yesterday's Extremes

Country Highs Country Lows

Community

WunderPhotos

Upload Photos

1,746,418 photos uploaded!

WunderBlogs® & News

By Dr. Jeff Masters
Director of Meteorology, Weather Underground
By Kari Strenfel
Meteorologist, Weather Underground
By Christopher C. Burt
Weather Historian, Weather Underground
August 23, 2014
August 23, 2014
August 23, 2014

Nearby

جودة الهواء

Not available.

عمق الثلج

Not available.

Earthquake Activity

City Distance Mag. Time & Date
No recent earthquake activity has been reported nearby.
Minimum magnitude displayed is 2.5.

Coastal Water Temperatures

مكان درجات الحرارة
No Stations Reporting

Nearby Weather Stations